Stations météo

Publicité
Logan Botanic Garden, Grande-Bretagne (99193): Température de l'air & dewpoint: 13.03.2019 06:00:00 - 19.03.2019 06:00:00 (GMT)Logan Botanic Garden, Grande-Bretagne (99193): Température de l'air -20cm: 13.03.2019 06:00:00 - 19.03.2019 06:00:00 (GMT)Logan Botanic Garden, Grande-Bretagne (99193): Quantités de précipitations: 13.03.2019 06:00:00 - 19.03.2019 06:00:00 (GMT)
Date & Time tt [°C] td [°C] tt -20cm [°C] rr [mm]
19.03.2019 06:00:00 - - - -
19.03.2019 05:00:00 7,9 7,7 - 0,2
19.03.2019 04:00:00 7,9 7,7 - 0,0
19.03.2019 03:00:00 8,1 7,8 - 0,0
19.03.2019 02:00:00 8,1 7,8 - 0,0
19.03.2019 01:00:00 8,3 7,9 - 0,4
19.03.2019 00:00:00 8,1 7,6 - 0,0
18.03.2019 23:00:00 7,9 7,4 - 0,0
18.03.2019 22:00:00 7,9 7,4 - 0,0
18.03.2019 21:00:00 8,1 7,5 - 0,0
18.03.2019 20:00:00 8,4 7,5 - 0,0
18.03.2019 19:00:00 8,6 7,5 - 0,0
18.03.2019 18:00:00 9,0 7,4 - 0,0
18.03.2019 17:00:00 9,6 7,8 - 0,0
18.03.2019 16:00:00 9,2 7,9 - 0,0
18.03.2019 15:00:00 8,3 7,8 - 0,0
18.03.2019 14:00:00 8,0 7,7 - 0,2
18.03.2019 13:00:00 7,3 6,7 - 0,6
18.03.2019 12:00:00 6,9 5,9 - 0,2
18.03.2019 11:00:00 6,4 5,6 - 0,2
18.03.2019 10:00:00 6,3 5,4 - 0,2
18.03.2019 09:00:00 6,2 5,1 7,4 0,4
18.03.2019 08:00:00 5,5 4,4 - 0,4
18.03.2019 07:00:00 5,3 4,1 - 0,2
18.03.2019 06:00:00 5,6 4,0 - 0,2
18.03.2019 05:00:00 6,1 3,7 - 0,0
18.03.2019 04:00:00 5,8 3,7 - 0,0
18.03.2019 03:00:00 6,2 3,7 - 0,0
18.03.2019 02:00:00 5,9 3,7 - 0,0
18.03.2019 01:00:00 6,4 3,7 - 0,0
18.03.2019 00:00:00 6,1 3,9 - 0,0
17.03.2019 23:00:00 6,7 3,8 - 0,0
17.03.2019 22:00:00 5,5 2,0 - 0,0
17.03.2019 21:00:00 6,5 1,9 - 0,0
17.03.2019 20:00:00 7,2 3,5 - 0,0
17.03.2019 19:00:00 7,2 3,5 - 0,0
17.03.2019 18:00:00 7,4 2,4 - 0,0
17.03.2019 17:00:00 8,1 4,6 - 0,0
17.03.2019 16:00:00 8,8 3,6 - 0,0
17.03.2019 15:00:00 9,3 3,7 - 0,0
17.03.2019 14:00:00 8,5 3,7 - 0,0
17.03.2019 13:00:00 8,2 4,8 - 0,0
17.03.2019 12:00:00 6,6 3,3 - 0,0
17.03.2019 11:00:00 6,3 3,0 - 0,0
17.03.2019 10:00:00 5,7 2,6 - 0,0
17.03.2019 09:00:00 4,9 2,2 7,5 0,0
17.03.2019 08:00:00 3,6 1,4 - 0,0
17.03.2019 07:00:00 3,3 1,3 - 0,0
17.03.2019 06:00:00 3,4 1,3 - 0,0
17.03.2019 05:00:00 2,7 1,7 - 0,6
17.03.2019 04:00:00 2,0 1,3 - 1,6
17.03.2019 03:00:00 3,3 1,5 - 0,0
17.03.2019 02:00:00 3,3 1,8 - 0,2
17.03.2019 01:00:00 3,5 2,3 - 1,4
17.03.2019 00:00:00 3,1 1,6 - 1,0
16.03.2019 23:00:00 4,2 2,1 - 0,0
16.03.2019 22:00:00 4,5 2,6 - 0,0
16.03.2019 21:00:00 4,9 2,9 - 0,0
16.03.2019 20:00:00 5,1 2,9 - 0,2
16.03.2019 19:00:00 5,3 2,7 - 0,4
16.03.2019 18:00:00 5,6 2,3 - 0,0
16.03.2019 17:00:00 5,5 3,1 - 0,0
16.03.2019 16:00:00 5,3 2,7 - 0,0
16.03.2019 15:00:00 5,9 4,3 - 0,0
16.03.2019 14:00:00 8,6 7,2 - 0,8
16.03.2019 13:00:00 9,8 9,1 - 0,2
16.03.2019 12:00:00 10,0 9,2 - 0,0
16.03.2019 11:00:00 10,0 9,6 - 0,0
16.03.2019 10:00:00 9,5 9,2 - 0,2
16.03.2019 09:00:00 9,3 9,2 7,0 0,8
16.03.2019 08:00:00 9,3 9,2 - 1,4
16.03.2019 07:00:00 6,6 6,5 - 2,2
16.03.2019 06:00:00 4,8 4,6 - 1,4
16.03.2019 05:00:00 4,3 3,8 - 1,8
16.03.2019 04:00:00 3,5 2,7 - 1,4
16.03.2019 03:00:00 3,5 2,6 - 1,6
16.03.2019 02:00:00 3,8 2,8 - 2,0
16.03.2019 01:00:00 4,5 2,5 - 0,4
16.03.2019 00:00:00 5,9 2,4 - 0,0
15.03.2019 23:00:00 6,4 2,7 - 0,0
15.03.2019 22:00:00 6,4 2,7 - 0,0
15.03.2019 21:00:00 6,4 2,1 - 0,0
15.03.2019 20:00:00 6,6 1,7 - 0,0
15.03.2019 19:00:00 6,9 1,8 - 0,0
15.03.2019 18:00:00 7,1 1,5 - 0,0
15.03.2019 17:00:00 7,3 0,9 - 0,0
15.03.2019 16:00:00 8,1 1,8 - 0,0
15.03.2019 15:00:00 8,5 2,5 - 0,0
15.03.2019 14:00:00 7,4 3,7 - 0,0
15.03.2019 13:00:00 8,4 2,4 - 0,0
15.03.2019 12:00:00 7,5 3,1 - 0,0
15.03.2019 11:00:00 8,9 2,7 - 0,0
15.03.2019 10:00:00 7,7 3,1 - 0,0
15.03.2019 09:00:00 7,4 2,2 7,7 0,0
15.03.2019 08:00:00 7,6 3,5 - 0,0
15.03.2019 07:00:00 8,1 4,1 - 0,0
15.03.2019 06:00:00 8,5 4,2 - 0,0
15.03.2019 05:00:00 8,8 6,0 - 0,0
15.03.2019 04:00:00 9,4 7,6 - 0,0
15.03.2019 03:00:00 10,0 9,0 - 0,0
15.03.2019 02:00:00 8,5 8,2 - 0,0
15.03.2019 01:00:00 7,4 7,0 - 0,0
15.03.2019 00:00:00 7,1 6,5 - 0,4
14.03.2019 23:00:00 6,8 5,6 - 0,8
14.03.2019 22:00:00 7,0 5,2 - 0,6
14.03.2019 21:00:00 7,4 5,1 - 0,0
14.03.2019 20:00:00 7,5 4,7 - 0,0
14.03.2019 19:00:00 7,9 4,3 - 0,0
14.03.2019 18:00:00 7,8 4,7 - 0,0
14.03.2019 17:00:00 8,6 4,2 - 0,0
14.03.2019 16:00:00 8,8 3,8 - 0,0
14.03.2019 15:00:00 9,4 4,8 - 0,0
14.03.2019 14:00:00 8,9 5,6 - 0,0
14.03.2019 13:00:00 9,2 4,3 - 0,0
14.03.2019 12:00:00 9,2 4,7 - 0,0
14.03.2019 11:00:00 8,8 4,0 - 0,0
14.03.2019 10:00:00 9,1 4,7 - 0,0
14.03.2019 09:00:00 8,5 3,9 7,4 0,0
14.03.2019 08:00:00 8,4 4,6 - 0,0
14.03.2019 07:00:00 8,8 5,2 - 0,2
14.03.2019 06:00:00 8,5 6,2 - 0,2
14.03.2019 05:00:00 9,2 8,4 - 0,8
14.03.2019 04:00:00 8,8 7,8 - 0,0
14.03.2019 03:00:00 8,3 7,2 - 0,4
14.03.2019 02:00:00 8,2 6,8 - 0,0
14.03.2019 01:00:00 8,2 6,5 - 0,0
14.03.2019 00:00:00 8,0 6,4 - 0,0
13.03.2019 23:00:00 7,8 6,1 - 0,0
13.03.2019 22:00:00 7,8 5,7 - 0,0
13.03.2019 21:00:00 7,5 5,3 - 0,0
13.03.2019 20:00:00 7,3 5,2 - 0,0
13.03.2019 19:00:00 7,1 4,6 - 0,0
13.03.2019 18:00:00 7,7 4,0 - 0,0
13.03.2019 17:00:00 8,3 3,6 - 0,0
13.03.2019 16:00:00 8,9 3,9 - 0,0
13.03.2019 15:00:00 8,5 2,9 - 0,0
13.03.2019 14:00:00 7,4 5,1 - 0,2
13.03.2019 13:00:00 9,1 4,2 - 0,0
13.03.2019 12:00:00 9,0 4,8 - 0,0
13.03.2019 11:00:00 9,0 4,5 - 0,0
13.03.2019 10:00:00 8,8 4,2 - 0,0
13.03.2019 09:00:00 8,5 4,3 7,2 0,0
13.03.2019 08:00:00 7,7 4,5 - 0,2
13.03.2019 07:00:00 7,1 4,8 - 0,2
13.03.2019 06:00:00 6,9 4,5 - 0,6

tt = Température de l'air
td = dewpoint
tt -20cm = Température de l'air -20cm
rr = Quantités de précipitations

stations d'obs. à proximité